Time,TemperatureF,DewpointF,PressureIn,WindDirection,WindDirectionDegrees,WindSpeedMPH,WindSpeedGustMPH,Humidity,HourlyPrecipIn,Conditions,Clouds,dailyrainin,SoftwareType,DateUTC
2013-02-16 00:00:00,45.6,44.0,30.02,SE,134,2.0,7.0,94,0.02,RA,,0.00,WeatherDisplay:10.37,2013-02-15 23:00:00,
2013-02-16 08:20:00,46.4,39.6,30.04,NE,40,6.0,14.0,77,0.00,CLR,,0.06,WeatherDisplay:10.37,2013-02-16 07:20:00,
2013-02-16 08:30:00,46.7,39.8,30.04,NE,34,8.0,14.0,77,0.00,CLR,,0.06,WeatherDisplay:10.37,2013-02-16 07:30:00,
2013-02-16 08:40:00,46.9,39.7,30.04,NE,38,7.0,15.0,76,0.00,CLR,,0.06,WeatherDisplay:10.37,2013-02-16 07:40:00,
2013-02-16 08:50:00,47.1,39.9,30.04,NE,42,10.0,17.0,76,0.00,CLR,,0.06,WeatherDisplay:10.37,2013-02-16 07:50:00,
2013-02-16 09:00:00,47.4,40.2,30.04,NNE,27,7.0,16.0,76,0.00,CLR,,0.06,WeatherDisplay:10.37,2013-02-16 08:00:00,
2013-02-16 09:10:00,47.8,39.9,30.05,NE,39,9.0,14.0,74,0.00,CLR,,0.06,WeatherDisplay:10.37,2013-02-16 08:10:00,
2013-02-16 09:20:00,48.1,40.2,30.05,NE,35,9.0,13.0,74,0.00,CLR,,0.06,WeatherDisplay:10.37,2013-02-16 08:20:00,
2013-02-16 09:30:00,48.1,39.9,30.05,NE,38,6.0,16.0,73,0.00,CLR,,0.06,WeatherDisplay:10.37,2013-02-16 08:30:00,
2013-02-16 09:40:00,48.5,39.9,30.05,ENE,57,6.0,13.0,72,0.00,CLR,,0.06,WeatherDisplay:10.37,2013-02-16 08:40:00,
2013-02-16 09:50:00,49.3,40.3,30.06,NE,51,6.0,12.0,71,0.00,CLR,,0.06,WeatherDisplay:10.37,2013-02-16 08:50:00,
2013-02-16 10:00:00,49.9,40.8,30.06,ENE,62,3.0,12.0,71,0.00,CLR,,0.06,WeatherDisplay:10.37,2013-02-16 09:00:00,
2013-02-16 10:10:00,50.0,41.0,30.06,ENE,66,5.0,14.0,71,0.00,CLR,,0.06,WeatherDisplay:10.37,2013-02-16 09:10:00,
2013-02-16 10:20:00,50.5,41.4,30.06,NE,55,2.0,7.0,71,0.00,CLR,,0.06,WeatherDisplay:10.37,2013-02-16 09:20:00,
2013-02-16 10:30:00,50.6,40.8,30.07,ENE,62,5.0,15.0,69,0.00,CLR,,0.06,WeatherDisplay:10.37,2013-02-16 09:30:00,
2013-02-16 10:40:00,50.9,40.3,30.07,East,86,5.0,15.0,67,0.00,CLR,,0.06,WeatherDisplay:10.37,2013-02-16 09:40:00,
2013-02-16 10:50:00,50.7,40.1,30.07,NNE,24,7.0,13.0,67,0.00,CLR,,0.06,WeatherDisplay:10.37,2013-02-16 09:50:00,
2013-02-16 11:00:00,51.0,39.6,30.07,NE,45,6.0,12.0,65,0.00,CLR,,0.06,WeatherDisplay:10.37,2013-02-16 10:00:00,
2013-02-16 11:10:00,51.4,40.0,30.07,NNE,24,7.0,13.0,65,0.00,CLR,,0.06,WeatherDisplay:10.37,2013-02-16 10:10:00,
2013-02-16 11:40:00,52.0,40.6,30.07,NE,37,5.0,12.0,65,0.00,CLR,,0.06,WeatherDisplay:10.37,2013-02-16 10:40:00,
2013-02-16 11:50:00,52.0,39.8,30.07,NE,40,9.0,14.0,63,0.00,CLR,,0.06,WeatherDisplay:10.37,2013-02-16 10:50:00,
2013-02-16 12:00:00,51.7,39.9,30.07,NE,38,7.0,13.0,64,0.00,CLR,,0.06,WeatherDisplay:10.37,2013-02-16 11:00:00,
2013-02-16 12:10:00,52.1,39.5,30.06,ENE,66,5.0,10.0,62,0.00,CLR,,0.06,WeatherDisplay:10.37,2013-02-16 11:10:00,
2013-02-16 12:20:00,52.2,39.6,30.06,NE,49,7.0,10.0,62,0.00,CLR,,0.06,WeatherDisplay:10.37,2013-02-16 11:20:00,
2013-02-16 12:30:00,52.2,39.6,30.06,NE,35,3.0,10.0,62,0.00,CLR,,0.06,WeatherDisplay:10.37,2013-02-16 11:30:00,
2013-02-16 12:40:00,52.9,39.4,30.06,ENE,65,7.0,12.0,60,0.00,CLR,,0.06,WeatherDisplay:10.37,2013-02-16 11:40:00,
2013-02-16 12:50:00,52.7,39.6,30.06,NE,48,3.0,12.0,61,0.00,CLR,,0.06,WeatherDisplay:10.37,2013-02-16 11:50:00,
2013-02-16 13:00:00,52.4,38.9,30.06,NE,54,5.0,13.0,60,0.00,CLR,,0.06,WeatherDisplay:10.37,2013-02-16 12:00:00,
2013-02-16 13:10:00,52.5,39.0,30.06,NE,53,7.0,13.0,60,0.00,CLR,,0.06,WeatherDisplay:10.37,2013-02-16 12:10:00,
2013-02-16 13:20:00,52.3,38.9,30.06,NNE,32,3.0,12.0,60,0.00,CLR,,0.06,WeatherDisplay:10.37,2013-02-16 12:20:00,
2013-02-16 13:30:00,52.6,39.1,30.05,NNE,23,6.0,16.0,60,0.00,CLR,,0.06,WeatherDisplay:10.37,2013-02-16 12:30:00,
2013-02-16 13:40:00,53.0,39.0,30.05,ENE,66,3.0,12.0,59,0.00,CLR,,0.06,WeatherDisplay:10.37,2013-02-16 12:40:00,
2013-02-16 13:50:00,53.6,40.0,30.05,NNE,28,5.0,13.0,60,0.00,CLR,,0.06,WeatherDisplay:10.37,2013-02-16 12:50:00,
2013-02-16 14:00:00,52.8,38.8,30.05,NE,34,6.0,15.0,59,0.00,CLR,,0.06,WeatherDisplay:10.37,2013-02-16 13:00:00,
2013-02-16 14:10:00,52.4,38.9,30.05,NE,37,5.0,15.0,60,0.00,CLR,,0.06,WeatherDisplay:10.37,2013-02-16 13:10:00,
2013-02-16 14:20:00,52.6,39.1,30.05,NE,45,5.0,13.0,60,0.00,CLR,,0.06,WeatherDisplay:10.37,2013-02-16 13:20:00,
2013-02-16 14:30:00,52.5,39.0,30.05,NE,34,6.0,15.0,60,0.00,CLR,,0.06,WeatherDisplay:10.37,2013-02-16 13:30:00,
2013-02-16 14:40:00,52.7,39.6,30.06,NE,46,5.0,12.0,61,0.00,CLR,,0.06,WeatherDisplay:10.37,2013-02-16 13:40:00,
2013-02-16 14:50:00,52.6,38.7,30.06,NNE,33,7.0,12.0,59,0.00,CLR,,0.06,WeatherDisplay:10.37,2013-02-16 13:50:00,
2013-02-16 15:00:00,52.7,39.2,30.06,NE,40,2.0,12.0,60,0.00,CLR,,0.06,WeatherDisplay:10.37,2013-02-16 14:00:00,
2013-02-16 15:10:00,52.6,39.1,30.06,NE,34,7.0,12.0,60,0.00,CLR,,0.06,WeatherDisplay:10.37,2013-02-16 14:10:00,
2013-02-16 15:20:00,52.6,39.1,30.06,NE,54,5.0,10.0,60,0.00,CLR,,0.06,WeatherDisplay:10.37,2013-02-16 14:20:00,
2013-02-16 15:30:00,52.5,39.8,30.06,NNE,20,2.0,12.0,62,0.00,CLR,,0.06,WeatherDisplay:10.37,2013-02-16 14:30:00,
2013-02-16 15:40:00,52.3,39.7,30.06,ENE,66,5.0,12.0,62,0.00,CLR,,0.06,WeatherDisplay:10.37,2013-02-16 14:40:00,
2013-02-16 15:50:00,52.8,40.1,30.06,NNE,25,2.0,9.0,62,0.00,CLR,,0.06,WeatherDisplay:10.37,2013-02-16 14:50:00,
2013-02-16 16:00:00,52.7,40.0,30.06,ENE,57,3.0,9.0,62,0.00,CLR,,0.06,WeatherDisplay:10.37,2013-02-16 15:00:00,
2013-02-16 16:10:00,52.7,40.0,30.06,ENE,69,5.0,10.0,62,0.00,CLR,,0.06,WeatherDisplay:10.37,2013-02-16 15:10:00,
2013-02-16 16:20:00,52.4,39.7,30.06,NE,54,6.0,13.0,62,0.00,CLR,,0.06,WeatherDisplay:10.37,2013-02-16 15:20:00,
2013-02-16 16:30:00,52.1,39.1,30.06,NE,50,6.0,12.0,61,0.00,CLR,,0.06,WeatherDisplay:10.37,2013-02-16 15:30:00,
2013-02-16 16:40:00,52.0,39.4,30.06,NE,55,3.0,10.0,62,0.00,CLR,,0.06,WeatherDisplay:10.37,2013-02-16 15:40:00,
2013-02-16 16:50:00,51.6,39.0,30.07,ENE,63,7.0,12.0,62,0.00,CLR,,0.06,WeatherDisplay:10.37,2013-02-16 15:50:00,
2013-02-16 17:00:00,51.4,38.9,30.07,NE,56,7.0,12.0,62,0.00,CLR,,0.06,WeatherDisplay:10.37,2013-02-16 16:00:00,
2013-02-16 17:10:00,51.0,38.4,30.07,ENE,60,6.0,12.0,62,0.00,CLR,,0.06,WeatherDisplay:10.37,2013-02-16 16:10:00,
2013-02-16 17:20:00,50.8,39.1,30.07,NE,53,6.0,12.0,64,0.00,CLR,,0.06,WeatherDisplay:10.37,2013-02-16 16:20:00,
2013-02-16 17:31:00,50.5,38.8,30.07,NE,51,6.0,12.0,64,0.00,CLR,,0.06,WeatherDisplay:10.37,2013-02-16 16:31:00,
2013-02-16 17:40:00,50.2,38.5,30.07,NE,45,6.0,13.0,64,0.00,CLR,,0.06,WeatherDisplay:10.37,2013-02-16 16:40:00,
2013-02-16 17:50:00,50.1,38.8,30.08,NE,46,5.0,10.0,65,0.00,CLR,,0.06,WeatherDisplay:10.37,2013-02-16 16:50:00,
2013-02-16 18:00:00,50.0,38.3,30.08,NE,50,8.0,13.0,64,0.00,CLR,,0.06,WeatherDisplay:10.37,2013-02-16 17:00:00,
2013-02-16 18:10:00,49.9,39.0,30.08,NE,48,5.0,12.0,66,0.00,CLR,,0.06,WeatherDisplay:10.37,2013-02-16 17:10:00,
2013-02-16 18:20:00,49.8,38.9,30.08,NE,49,5.0,8.0,66,0.00,CLR,,0.06,WeatherDisplay:10.37,2013-02-16 17:20:00,
2013-02-16 18:30:00,49.7,38.8,30.08,NE,45,5.0,10.0,66,0.00,CLR,,0.06,WeatherDisplay:10.37,2013-02-16 17:30:00,
2013-02-16 18:40:00,49.6,38.7,30.08,ENE,63,3.0,9.0,66,0.00,CLR,,0.06,WeatherDisplay:10.37,2013-02-16 17:40:00,
2013-02-16 18:50:00,49.6,38.7,30.08,ENE,64,3.0,8.0,66,0.00,CLR,,0.06,WeatherDisplay:10.37,2013-02-16 17:50:00,
2013-02-16 19:00:00,49.5,38.6,30.08,East,85,3.0,8.0,66,0.00,CLR,,0.06,WeatherDisplay:10.37,2013-02-16 18:00:00,
2013-02-16 19:10:00,49.5,38.6,30.08,ENE,69,2.0,5.0,66,0.00,CLR,,0.06,WeatherDisplay:10.37,2013-02-16 18:10:00,
2013-02-16 19:20:00,49.4,38.1,30.08,NNE,31,2.0,7.0,65,0.00,CLR,,0.06,WeatherDisplay:10.37,2013-02-16 18:20:00,
2013-02-16 19:30:00,49.4,38.1,30.09,NE,35,7.0,10.0,65,0.00,CLR,,0.06,WeatherDisplay:10.37,2013-02-16 18:30:00,
2013-02-16 19:40:00,49.4,37.7,30.09,NE,48,8.0,12.0,64,0.00,CLR,,0.06,WeatherDisplay:10.37,2013-02-16 18:40:00,
2013-02-16 19:50:00,49.4,38.1,30.09,NE,47,3.0,10.0,65,0.00,CLR,,0.06,WeatherDisplay:10.37,2013-02-16 18:50:00,
2013-02-16 20:00:00,49.4,37.7,30.09,NE,41,5.0,8.0,64,0.00,CLR,,0.06,WeatherDisplay:10.37,2013-02-16 19:00:00,
2013-02-16 20:10:00,49.5,38.2,30.09,NE,39,1.0,8.0,65,0.00,CLR,,0.06,WeatherDisplay:10.37,2013-02-16 19:10:00,
2013-02-16 20:20:00,49.6,37.9,30.09,ENE,57,1.0,7.0,64,0.00,CLR,,0.06,WeatherDisplay:10.37,2013-02-16 19:20:00,
2013-02-16 20:30:00,49.6,37.5,30.09,East,94,2.0,4.0,63,0.00,CLR,,0.06,WeatherDisplay:10.37,2013-02-16 19:30:00,
2013-02-16 20:40:00,49.5,37.4,30.09,NE,35,2.0,8.0,63,0.00,CLR,,0.06,WeatherDisplay:10.37,2013-02-16 19:40:00,
2013-02-16 20:50:00,49.3,38.4,30.09,NNW,338,3.0,4.0,66,0.00,CLR,,0.06,WeatherDisplay:10.37,2013-02-16 19:50:00,
2013-02-16 21:00:00,48.9,38.4,30.09,NNW,340,2.0,6.0,67,0.00,CLR,,0.06,WeatherDisplay:10.37,2013-02-16 20:00:00,
2013-02-16 21:10:00,48.9,38.0,30.09,North,8,2.0,6.0,66,0.00,CLR,,0.06,WeatherDisplay:10.37,2013-02-16 20:10:00,
2013-02-16 21:20:00,48.8,37.9,30.09,NNW,345,3.0,5.0,66,0.00,CLR,,0.06,WeatherDisplay:10.37,2013-02-16 20:20:00,
2013-02-16 21:30:00,48.7,37.8,30.09,North,8,3.0,4.0,66,0.00,CLR,,0.06,WeatherDisplay:10.37,2013-02-16 20:30:00,
2013-02-16 21:40:00,48.6,38.1,30.09,North,0,1.0,7.0,67,0.00,CLR,,0.06,WeatherDisplay:10.37,2013-02-16 20:40:00,
2013-02-16 21:50:00,48.2,38.1,30.09,North,352,2.0,5.0,68,0.00,CLR,,0.06,WeatherDisplay:10.37,2013-02-16 20:50:00,
2013-02-16 22:00:00,47.9,38.2,30.09,NNE,13,5.0,6.0,69,0.00,CLR,,0.06,WeatherDisplay:10.37,2013-02-16 21:00:00,
2013-02-16 22:10:00,47.7,38.4,30.09,NNE,13,5.0,6.0,70,0.00,CLR,,0.06,WeatherDisplay:10.37,2013-02-16 21:10:00,
2013-02-16 22:20:00,47.7,38.4,30.09,NNE,24,3.0,7.0,70,0.00,CLR,,0.06,WeatherDisplay:10.37,2013-02-16 21:20:00,
2013-02-16 22:30:00,47.6,38.3,30.09,North,10,5.0,9.0,70,0.00,CLR,,0.06,WeatherDisplay:10.37,2013-02-16 21:30:00,
2013-02-16 22:40:00,47.5,38.6,30.09,NNE,20,5.0,8.0,71,0.00,CLR,,0.06,WeatherDisplay:10.37,2013-02-16 21:40:00,
2013-02-16 22:50:00,47.7,38.0,30.09,NNE,14,6.0,10.0,69,0.00,CLR,,0.06,WeatherDisplay:10.37,2013-02-16 21:50:00,
2013-02-16 23:00:00,47.2,38.3,30.09,NNE,24,5.0,8.0,71,0.00,CLR,,0.06,WeatherDisplay:10.37,2013-02-16 22:00:00,
2013-02-16 23:10:00,46.8,38.2,30.09,NNE,23,5.0,7.0,72,0.00,CLR,,0.06,WeatherDisplay:10.37,2013-02-16 22:10:00,